createdAt,value
2024-01-05T00:02:18.732Z,0.50
2024-01-05T00:04:49.147Z,0.70
2024-01-05T00:07:17.237Z,0.50
2024-01-05T00:09:45.294Z,0.40
2024-01-05T00:12:13.429Z,0.40
2024-01-05T00:14:41.514Z,0.80
2024-01-05T00:17:09.635Z,0.30
2024-01-05T00:19:37.977Z,0.60
2024-01-05T00:22:06.066Z,0.80
2024-01-05T00:24:38.487Z,0.90
2024-01-05T00:27:06.539Z,0.90
2024-01-05T00:29:34.638Z,0.70
2024-01-05T00:32:02.746Z,0.20
2024-01-05T00:34:30.987Z,0.40
2024-01-05T00:36:59.066Z,0.60
2024-01-05T00:39:29.617Z,0.50
2024-01-05T00:41:57.849Z,1.10
2024-01-05T00:44:27.427Z,0.40
2024-01-05T00:46:56.149Z,0.40
2024-01-05T00:49:24.321Z,1.10
2024-01-05T00:51:52.376Z,0.60
2024-01-05T00:54:20.284Z,0.40
2024-01-05T00:56:49.738Z,0.30
2024-01-05T00:59:21.063Z,0.40
2024-01-05T01:01:49.629Z,0.60
2024-01-05T01:04:18.938Z,0.40
2024-01-05T01:06:47.373Z,0.80
2024-01-05T01:09:17.126Z,0.60
2024-01-05T01:11:45.238Z,0.40
2024-01-05T01:14:16.171Z,0.40
2024-01-05T01:16:44.213Z,0.40
2024-01-05T01:19:12.308Z,0.60
2024-01-05T01:21:40.656Z,0.60
2024-01-05T01:24:08.788Z,0.30
2024-01-05T01:26:39.769Z,0.40
2024-01-05T01:29:09.859Z,0.30
2024-01-05T01:31:38.734Z,0.50
2024-01-05T01:34:07.571Z,0.20
2024-01-05T01:36:36.459Z,0.50
2024-01-05T01:39:07.188Z,0.50
2024-01-05T01:41:36.042Z,0.30
2024-01-05T01:44:06.695Z,0.50
2024-01-05T01:46:37.618Z,0.20
2024-01-05T01:49:07.121Z,0.40
2024-01-05T01:51:36.084Z,0.40
2024-01-05T01:54:06.882Z,0.20
2024-01-05T01:56:36.935Z,0.30
2024-01-05T01:59:08.363Z,0.40
2024-01-05T02:01:37.213Z,0.30
2024-01-05T02:04:06.079Z,0.20
2024-01-05T02:06:34.474Z,0.30
2024-01-05T02:09:05.855Z,0.50
2024-01-05T02:11:34.008Z,0.30
2024-01-05T02:14:04.668Z,0.40
2024-01-05T02:16:32.762Z,1.00
2024-01-05T02:19:03.306Z,0.60
2024-01-05T02:21:37.989Z,0.30
2024-01-05T02:24:06.745Z,0.30
2024-01-05T02:26:35.050Z,0.20
2024-01-05T02:29:05.265Z,0.30
2024-01-05T02:31:34.007Z,0.20
2024-01-05T02:34:02.443Z,0.30
2024-01-05T02:36:33.138Z,0.30
2024-01-05T02:39:01.410Z,0.30
2024-01-05T02:41:29.502Z,0.70
2024-01-05T02:43:57.491Z,0.30
2024-01-05T02:46:25.871Z,0.20
2024-01-05T02:48:56.894Z,0.80
2024-01-05T02:51:38.875Z,0.10
2024-01-05T02:54:07.190Z,0.10
2024-01-05T02:56:35.365Z,0.20
2024-01-05T02:59:07.857Z,0.20
2024-01-05T03:01:36.026Z,0.20
2024-01-05T03:04:04.208Z,0.30
2024-01-05T03:06:36.775Z,0.20
2024-01-05T03:09:07.032Z,0.50
2024-01-05T03:11:35.193Z,0.30
2024-01-05T03:14:03.835Z,0.30
2024-01-05T03:16:32.191Z,0.40
2024-01-05T03:19:00.659Z,0.20
2024-01-05T03:21:31.539Z,0.30
2024-01-05T03:23:59.471Z,0.30
2024-01-05T03:26:27.638Z,0.10
2024-01-05T03:28:57.935Z,0.30
2024-01-05T03:31:27.711Z,0.40
2024-01-05T03:34:00.708Z,0.30
2024-01-05T03:36:29.255Z,0.40
2024-01-05T03:38:58.853Z,0.20
2024-01-05T03:41:26.850Z,0.20
2024-01-05T03:43:55.773Z,0.50
2024-01-05T03:46:23.618Z,0.10
2024-01-05T03:48:54.321Z,0.50
2024-01-05T03:51:22.771Z,0.30
2024-01-05T03:53:51.071Z,0.40
2024-01-05T03:56:20.848Z,0.20
2024-01-05T03:58:48.714Z,0.10
2024-01-05T04:01:17.057Z,0.20
2024-01-05T04:03:45.733Z,0.40
2024-01-05T04:06:20.959Z,1.60
2024-01-05T04:08:49.389Z,0.40
2024-01-05T04:11:21.926Z,0.30
2024-01-05T04:13:50.525Z,0.20
2024-01-05T04:16:19.219Z,0.30
2024-01-05T04:18:47.626Z,0.10
2024-01-05T04:21:16.141Z,0.30
2024-01-05T04:23:44.636Z,0.50
2024-01-05T04:26:13.121Z,0.40
2024-01-05T04:28:41.548Z,0.30
2024-01-05T04:31:09.838Z,0.90
2024-01-05T04:33:38.405Z,0.20
2024-01-05T04:36:07.253Z,0.30
2024-01-05T04:38:36.056Z,0.10
2024-01-05T04:41:04.408Z,0.20
2024-01-05T04:43:32.440Z,0.30
2024-01-05T04:46:01.471Z,0.30
2024-01-05T04:48:29.981Z,0.20
2024-01-05T04:50:59.159Z,0.10
2024-01-05T04:53:27.331Z,0.20
2024-01-05T04:55:55.348Z,0.20
2024-01-05T04:58:25.810Z,0.30
2024-01-05T05:00:55.705Z,0.10
2024-01-05T05:03:25.709Z,0.20
2024-01-05T05:05:54.178Z,0.50
2024-01-05T05:08:23.143Z,0.40
2024-01-05T05:10:51.660Z,0.30
2024-01-05T05:13:19.955Z,0.20
2024-01-05T05:15:48.385Z,0.50
2024-01-05T05:18:17.456Z,0.10
2024-01-05T05:20:46.195Z,0.30
2024-01-05T05:23:14.259Z,0.20
2024-01-05T05:25:42.609Z,0.50
2024-01-05T05:28:11.086Z,0.60
2024-01-05T05:30:39.717Z,1.30
2024-01-05T05:33:08.288Z,0.10
2024-01-05T05:35:36.422Z,0.40
2024-01-05T05:38:04.769Z,0.20
2024-01-05T05:40:33.748Z,0.40
2024-01-05T05:43:02.017Z,2.20
2024-01-05T05:45:30.215Z,2.50
2024-01-05T05:47:58.365Z,2.10
2024-01-05T05:50:26.646Z,1.50
2024-01-05T05:52:55.265Z,3.60
2024-01-05T05:55:23.470Z,1.50
2024-01-05T05:57:51.526Z,7.50
2024-01-05T06:00:20.139Z,2.60
2024-01-05T06:02:48.539Z,6.40
2024-01-05T06:05:17.603Z,5.50
2024-01-05T06:07:46.272Z,2.30
2024-01-05T06:10:14.973Z,2.00
2024-01-05T06:12:43.671Z,4.40
2024-01-05T06:15:11.885Z,2.40
2024-01-05T06:17:40.061Z,2.90
2024-01-05T06:20:09.636Z,2.60
2024-01-05T06:22:37.671Z,2.50
2024-01-05T06:25:05.993Z,3.00
2024-01-05T06:27:38.918Z,3.10
2024-01-05T06:30:12.501Z,2.90
2024-01-05T06:32:40.543Z,5.00
2024-01-05T06:35:08.963Z,3.60
2024-01-05T06:37:37.076Z,5.00
2024-01-05T06:40:05.503Z,4.90
2024-01-05T06:42:33.765Z,2.20
2024-01-05T06:45:02.101Z,4.40
2024-01-05T06:47:31.416Z,1.30
2024-01-05T06:49:59.511Z,3.10
2024-01-05T06:52:28.087Z,2.90
2024-01-05T06:54:56.422Z,2.70
2024-01-05T06:57:24.596Z,5.80
2024-01-05T06:59:52.945Z,4.90
2024-01-05T07:02:21.326Z,2.70
2024-01-05T07:04:49.541Z,3.50
2024-01-05T07:07:17.654Z,3.30
2024-01-05T07:09:46.041Z,3.90
2024-01-05T07:12:14.347Z,5.50
2024-01-05T07:14:42.442Z,6.50
2024-01-05T07:17:10.519Z,5.90
2024-01-05T07:19:40.148Z,4.20
2024-01-05T07:22:10.447Z,5.10
2024-01-05T07:24:38.789Z,6.10
2024-01-05T07:27:07.483Z,3.80
2024-01-05T07:29:35.861Z,4.80
2024-01-05T07:32:06.262Z,4.80
2024-01-05T07:34:34.771Z,5.40
2024-01-05T07:37:03.039Z,5.30
2024-01-05T07:39:31.092Z,4.00
2024-01-05T07:41:59.515Z,7.20
2024-01-05T07:44:27.741Z,3.50
2024-01-05T07:46:55.829Z,5.20
2024-01-05T07:49:25.344Z,4.60
2024-01-05T07:51:54.531Z,5.10
2024-01-05T07:54:23.336Z,5.30
2024-01-05T07:56:51.385Z,5.80
2024-01-05T07:59:19.402Z,3.00
2024-01-05T08:01:52.976Z,3.70
2024-01-05T08:04:21.123Z,4.60
2024-01-05T08:06:49.649Z,4.00
2024-01-05T08:09:19.065Z,4.70
2024-01-05T08:11:47.586Z,3.50
2024-01-05T08:14:16.671Z,4.20
2024-01-05T08:16:44.701Z,2.10
2024-01-05T08:19:12.864Z,3.90
2024-01-05T08:21:41.629Z,4.50
2024-01-05T08:24:10.236Z,4.60
2024-01-05T08:26:38.976Z,2.90
2024-01-05T08:29:07.116Z,4.50
2024-01-05T08:31:35.348Z,4.90
2024-01-05T08:34:04.228Z,2.40
2024-01-05T08:36:33.934Z,4.80
2024-01-05T08:39:02.004Z,2.80
2024-01-05T08:41:30.868Z,4.80
2024-01-05T08:43:59.028Z,3.90
2024-01-05T08:46:30.071Z,3.00
2024-01-05T08:48:58.323Z,3.80
2024-01-05T08:51:26.564Z,3.60
2024-01-05T08:53:55.141Z,3.40
2024-01-05T08:56:23.285Z,4.00
2024-01-05T08:58:51.760Z,2.70
2024-01-05T09:01:19.808Z,3.60
2024-01-05T09:03:47.974Z,2.90
2024-01-05T09:06:16.065Z,2.70
2024-01-05T09:08:44.165Z,5.20
2024-01-05T09:11:13.010Z,3.70
2024-01-05T09:13:40.978Z,2.50
2024-01-05T09:16:09.299Z,4.10
2024-01-05T09:18:39.419Z,2.70
2024-01-05T09:21:12.200Z,3.50
2024-01-05T09:23:42.285Z,3.40
2024-01-05T09:26:15.049Z,2.50
2024-01-05T09:28:44.005Z,2.90
2024-01-05T09:31:12.571Z,3.00
2024-01-05T09:33:41.226Z,2.30
2024-01-05T09:36:09.623Z,3.00
2024-01-05T09:38:38.586Z,3.30
2024-01-05T09:41:10.502Z,3.60
2024-01-05T09:43:39.438Z,2.40
2024-01-05T09:46:08.946Z,2.80
2024-01-05T09:48:43.480Z,4.10
2024-01-05T09:51:19.841Z,4.30
2024-01-05T09:53:48.293Z,2.60
2024-01-05T09:56:17.646Z,3.90
2024-01-05T09:58:47.926Z,4.40
2024-01-05T10:01:27.771Z,3.20
2024-01-05T10:03:58.123Z,3.10
2024-01-05T10:06:27.212Z,2.50
2024-01-05T10:08:57.391Z,4.60
2024-01-05T10:11:35.183Z,3.90
2024-01-05T10:14:08.045Z,2.30
2024-01-05T10:16:41.380Z,3.70
2024-01-05T10:19:17.650Z,2.00
2024-01-05T10:21:50.360Z,3.50
2024-01-05T10:24:27.771Z,3.80
2024-01-05T10:27:06.279Z,3.10
2024-01-05T10:29:45.356Z,3.70
2024-01-05T10:32:17.960Z,4.40
2024-01-05T10:34:51.208Z,4.90
2024-01-05T10:37:22.755Z,4.00
2024-01-05T10:42:31.268Z,5.00
2024-01-05T10:44:59.821Z,4.20
2024-01-05T10:47:33.337Z,4.90
2024-01-05T10:50:02.880Z,4.70
2024-01-05T10:52:34.986Z,2.90
2024-01-05T10:55:06.102Z,3.20
2024-01-05T11:00:07.864Z,4.40
2024-01-05T11:02:42.502Z,4.30
2024-01-05T11:05:14.193Z,3.90
2024-01-05T11:07:44.330Z,5.30
2024-01-05T11:10:33.276Z,3.30
2024-01-05T11:13:12.656Z,6.50
2024-01-05T11:15:54.760Z,4.60
2024-01-05T11:18:46.305Z,3.20
2024-01-05T11:21:34.966Z,4.50
2024-01-05T11:24:03.978Z,3.50
2024-01-05T11:26:37.740Z,5.00
2024-01-05T11:29:11.635Z,3.90
2024-01-05T11:31:48.938Z,4.00
2024-01-05T11:34:37.738Z,3.60
2024-01-05T11:37:06.519Z,3.50
2024-01-05T11:39:54.954Z,5.80
2024-01-05T11:42:26.038Z,4.60
2024-01-05T11:44:54.587Z,2.30
2024-01-05T11:47:42.125Z,3.20
2024-01-05T11:50:32.371Z,3.40
2024-01-05T11:53:14.141Z,3.00
2024-01-05T11:58:33.466Z,2.10
2024-01-05T12:01:03.710Z,4.80
2024-01-05T12:03:32.386Z,3.70
2024-01-05T12:06:02.714Z,4.10
2024-01-05T12:08:31.562Z,4.20
2024-01-05T12:11:04.390Z,4.20
2024-01-05T12:13:37.226Z,3.80
2024-01-05T12:16:07.956Z,3.30
2024-01-05T12:18:51.833Z,2.60
2024-01-05T12:21:22.912Z,2.10
2024-01-05T12:23:56.173Z,2.10
2024-01-05T12:26:26.387Z,3.50
2024-01-05T12:28:55.576Z,3.50
2024-01-05T12:31:25.639Z,2.00
2024-01-05T12:33:55.226Z,2.50
2024-01-05T12:36:33.457Z,2.10
2024-01-05T12:39:13.075Z,2.00
2024-01-05T12:41:44.608Z,2.30
2024-01-05T12:44:17.095Z,2.50
2024-01-05T12:46:48.359Z,1.90
2024-01-05T12:54:18.876Z,1.90
2024-01-05T12:56:49.784Z,1.00
2024-01-05T12:59:25.361Z,3.00
2024-01-05T13:02:08.064Z,2.80
2024-01-05T13:04:40.422Z,3.10
2024-01-05T13:07:13.155Z,1.20
2024-01-05T13:09:42.085Z,2.60
2024-01-05T13:12:12.176Z,2.70
2024-01-05T13:14:41.528Z,3.20
2024-01-05T13:17:09.690Z,2.40
2024-01-05T13:19:38.224Z,2.60
2024-01-05T13:22:11.463Z,2.20
2024-01-05T13:24:43.310Z,1.50
2024-01-05T13:27:14.507Z,1.80
2024-01-05T13:29:42.963Z,1.50
2024-01-05T13:32:11.487Z,1.20
2024-01-05T13:34:39.938Z,1.20
2024-01-05T13:37:08.016Z,2.10
2024-01-05T13:39:40.805Z,1.70
2024-01-05T13:42:09.432Z,2.00
2024-01-05T13:44:37.563Z,0.90
2024-01-05T13:47:05.761Z,1.50
2024-01-05T13:49:34.371Z,2.20
2024-01-05T13:52:02.670Z,2.40
2024-01-05T13:54:33.595Z,1.90
2024-01-05T13:57:02.402Z,1.50
2024-01-05T13:59:30.571Z,1.90
2024-01-05T14:01:58.713Z,2.50
2024-01-05T14:04:26.689Z,1.30
2024-01-05T14:06:54.622Z,1.90
2024-01-05T14:09:22.645Z,2.90
2024-01-05T14:11:52.369Z,1.90
2024-01-05T14:14:20.336Z,2.60
2024-01-05T14:16:48.573Z,1.00
2024-01-05T14:19:16.746Z,1.60
2024-01-05T14:21:45.315Z,1.50
2024-01-05T14:24:13.175Z,1.70
2024-01-05T14:26:41.292Z,2.00
2024-01-05T14:29:09.314Z,1.90
2024-01-05T14:31:37.904Z,2.50
2024-01-05T14:34:06.328Z,1.30
2024-01-05T14:36:35.052Z,1.70
2024-01-05T14:39:03.905Z,1.70
2024-01-05T14:41:31.849Z,2.50
2024-01-05T14:44:00.848Z,2.30
2024-01-05T14:46:30.684Z,3.50
2024-01-05T14:48:58.918Z,3.50
2024-01-05T14:51:26.980Z,3.10
2024-01-05T14:53:55.052Z,2.20
2024-01-05T14:56:23.685Z,2.70
2024-01-05T14:58:51.926Z,2.20
2024-01-05T15:01:20.294Z,2.40
2024-01-05T15:03:48.486Z,3.40
2024-01-05T15:06:17.241Z,2.20
2024-01-05T15:08:48.169Z,2.40
2024-01-05T15:11:20.777Z,2.80
2024-01-05T15:13:48.892Z,3.90
2024-01-05T15:16:16.930Z,2.90
2024-01-05T15:18:45.063Z,2.30
2024-01-05T15:21:23.748Z,2.80
2024-01-05T15:23:51.863Z,2.90
2024-01-05T15:26:20.799Z,3.50
2024-01-05T15:28:48.699Z,4.70
2024-01-05T15:31:21.392Z,2.40
2024-01-05T15:33:52.480Z,2.90
2024-01-05T15:36:25.742Z,2.50
2024-01-05T15:41:22.048Z,3.40
2024-01-05T15:43:57.517Z,3.60
2024-01-05T15:46:28.314Z,3.30
2024-01-05T15:48:59.173Z,4.10
2024-01-05T15:51:31.556Z,3.10
2024-01-05T15:54:01.168Z,3.00
2024-01-05T15:56:31.073Z,3.20
2024-01-05T15:58:59.031Z,2.60
2024-01-05T16:01:26.992Z,3.30
2024-01-05T16:03:55.230Z,3.00
2024-01-05T16:06:23.377Z,2.90
2024-01-05T16:08:51.762Z,2.80
2024-01-05T16:11:29.722Z,3.10
2024-01-05T16:13:58.915Z,3.80
2024-01-05T16:16:28.708Z,2.50
2024-01-05T16:18:57.011Z,3.60
2024-01-05T16:21:26.931Z,3.40
2024-01-05T16:23:57.034Z,2.50
2024-01-05T16:26:26.731Z,2.80
2024-01-05T16:28:54.689Z,3.00
2024-01-05T16:31:22.972Z,3.90
2024-01-05T16:33:51.399Z,2.20
2024-01-05T16:36:22.105Z,2.90
2024-01-05T16:38:50.272Z,2.90
2024-01-05T16:41:25.258Z,1.80
2024-01-05T16:43:54.847Z,3.50
2024-01-05T16:46:23.454Z,3.00
2024-01-05T16:48:55.260Z,2.60
2024-01-05T16:51:30.480Z,2.50
2024-01-05T16:54:01.161Z,3.00
2024-01-05T16:56:30.753Z,3.40
2024-01-05T16:58:58.862Z,2.90
2024-01-05T17:01:27.372Z,3.20
2024-01-05T17:03:56.887Z,3.00
2024-01-05T17:06:27.305Z,2.90
2024-01-05T17:08:56.269Z,2.80
2024-01-05T17:11:27.113Z,2.20
2024-01-05T17:14:00.643Z,2.40
2024-01-05T17:16:29.481Z,2.40
2024-01-05T17:19:01.879Z,3.80
2024-01-05T17:21:30.578Z,3.70
2024-01-05T17:23:58.789Z,3.40
2024-01-05T17:26:27.302Z,3.80
2024-01-05T17:28:55.538Z,4.70
2024-01-05T17:31:23.832Z,4.00
2024-01-05T17:33:51.950Z,2.80
2024-01-05T17:36:20.624Z,3.30
2024-01-05T17:38:50.811Z,3.30
2024-01-05T17:41:18.935Z,3.60
2024-01-05T17:43:46.969Z,3.50
2024-01-05T17:46:15.157Z,2.90
2024-01-05T17:48:44.119Z,2.60
2024-01-05T17:51:12.619Z,3.10
2024-01-05T17:53:42.395Z,3.70
2024-01-05T17:56:23.394Z,4.10
2024-01-05T17:58:51.312Z,2.90
2024-01-05T18:01:19.566Z,3.70
2024-01-05T18:03:47.902Z,3.30
2024-01-05T18:06:16.479Z,3.90
2024-01-05T18:08:45.041Z,3.70
2024-01-05T18:11:24.319Z,4.40
2024-01-05T18:13:56.129Z,4.40
2024-01-05T18:16:27.596Z,3.60
2024-01-05T18:18:58.375Z,3.90
2024-01-05T18:21:27.266Z,4.40
2024-01-05T18:23:57.064Z,4.90
2024-01-05T18:26:26.457Z,3.60
2024-01-05T18:28:54.740Z,3.40
2024-01-05T18:31:30.079Z,3.40
2024-01-05T18:33:58.408Z,4.30
2024-01-05T18:36:27.219Z,3.30
2024-01-05T18:38:56.198Z,3.60
2024-01-05T18:41:26.361Z,3.30
2024-01-05T18:43:54.726Z,3.10
2024-01-05T18:46:23.185Z,3.90
2024-01-05T18:48:51.216Z,3.90
2024-01-05T18:51:19.276Z,4.00
2024-01-05T18:53:47.243Z,3.90
2024-01-05T18:56:15.256Z,3.20
2024-01-05T18:58:43.549Z,3.60
2024-01-05T19:01:12.046Z,3.50
2024-01-05T19:03:40.423Z,4.60
2024-01-05T19:06:08.527Z,2.70
2024-01-05T19:08:36.963Z,3.50
2024-01-05T19:11:05.054Z,3.30
2024-01-05T19:13:34.046Z,2.80
2024-01-05T19:16:02.708Z,3.20
2024-01-05T19:18:31.089Z,3.20
2024-01-05T19:20:59.412Z,3.00
2024-01-05T19:23:27.296Z,3.30
2024-01-05T19:25:55.760Z,2.50
2024-01-05T19:28:27.135Z,3.60
2024-01-05T19:30:56.056Z,4.10
2024-01-05T19:33:24.920Z,2.60
2024-01-05T19:35:52.898Z,3.90
2024-01-05T19:38:20.937Z,3.10
2024-01-05T19:40:50.980Z,2.70
2024-01-05T19:43:18.935Z,3.50
2024-01-05T19:45:46.986Z,2.80
2024-01-05T19:48:16.534Z,3.10
2024-01-05T19:50:45.817Z,2.70
2024-01-05T19:53:13.816Z,3.80
2024-01-05T19:55:41.666Z,2.80
2024-01-05T19:58:09.954Z,3.50
2024-01-05T20:00:38.416Z,2.30
2024-01-05T20:03:06.988Z,3.00
2024-01-05T20:05:35.400Z,2.80
2024-01-05T20:08:03.859Z,3.00
2024-01-05T20:10:31.732Z,3.30
2024-01-05T20:12:59.805Z,2.20
2024-01-05T20:15:28.720Z,2.90
2024-01-05T20:18:06.023Z,2.40
2024-01-05T20:20:34.289Z,2.70
2024-01-05T20:23:03.305Z,3.20
2024-01-05T20:25:31.998Z,2.80
2024-01-05T20:28:00.035Z,2.60
2024-01-05T20:30:30.168Z,2.10
2024-01-05T20:32:58.593Z,3.10
2024-01-05T20:35:27.022Z,3.40
2024-01-05T20:37:55.341Z,2.80
2024-01-05T20:40:23.979Z,2.10
2024-01-05T20:42:52.217Z,1.60
2024-01-05T20:45:20.335Z,2.90
2024-01-05T20:47:48.666Z,2.70
2024-01-05T20:50:17.419Z,2.30
2024-01-05T20:52:45.471Z,2.70
2024-01-05T20:55:13.496Z,2.10
2024-01-05T20:57:41.520Z,2.20
2024-01-05T21:00:10.372Z,2.30
2024-01-05T21:02:38.579Z,2.30
2024-01-05T21:05:07.312Z,2.40
2024-01-05T21:07:36.768Z,1.50
2024-01-05T21:10:08.657Z,2.60
2024-01-05T21:12:36.972Z,3.30
2024-01-05T21:15:06.219Z,2.80
2024-01-05T21:17:34.375Z,2.30
2024-01-05T21:20:02.609Z,2.50
2024-01-05T21:22:30.839Z,3.00
2024-01-05T21:24:59.054Z,1.60
2024-01-05T21:27:27.113Z,2.20
2024-01-05T21:29:55.152Z,3.10
2024-01-05T21:32:25.520Z,2.30
2024-01-05T21:34:58.072Z,1.70
2024-01-05T21:37:26.045Z,2.30
2024-01-05T21:39:54.509Z,2.70
2024-01-05T21:42:23.054Z,2.10
2024-01-05T21:44:51.422Z,2.40
2024-01-05T21:47:20.843Z,1.90
2024-01-05T21:49:49.036Z,1.70
2024-01-05T21:52:17.387Z,2.70
2024-01-05T21:54:45.340Z,2.10
2024-01-05T21:57:13.609Z,1.40
2024-01-05T21:59:42.365Z,2.10
2024-01-05T22:02:11.691Z,3.60
2024-01-05T22:04:39.854Z,2.00
2024-01-05T22:07:08.079Z,1.70
2024-01-05T22:09:36.162Z,1.90
2024-01-05T22:12:04.738Z,3.00
2024-01-05T22:14:33.313Z,1.90
2024-01-05T22:17:02.289Z,2.00
2024-01-05T22:19:30.362Z,2.50
2024-01-05T22:21:58.509Z,1.80
2024-01-05T22:24:27.641Z,2.10
2024-01-05T22:26:56.075Z,1.60
2024-01-05T22:29:24.134Z,1.40
2024-01-05T22:31:56.305Z,1.80
2024-01-05T22:34:36.357Z,2.10
2024-01-05T22:37:41.419Z,1.70
2024-01-05T22:40:13.346Z,2.20
2024-01-05T22:42:48.389Z,1.80
2024-01-05T22:45:20.111Z,2.30
2024-01-05T22:47:50.855Z,1.30
2024-01-05T22:50:24.961Z,2.00
2024-01-05T22:52:55.549Z,1.40
2024-01-05T22:55:24.458Z,1.80
2024-01-05T22:57:53.707Z,2.10
2024-01-05T23:00:23.332Z,1.80
2024-01-05T23:02:52.951Z,1.80
2024-01-05T23:05:22.275Z,1.40
2024-01-05T23:07:51.999Z,1.40
2024-01-05T23:10:21.849Z,1.40
2024-01-05T23:12:54.492Z,1.70
2024-01-05T23:15:24.630Z,1.60
2024-01-05T23:17:53.545Z,1.50
2024-01-05T23:20:25.400Z,1.60
2024-01-05T23:22:53.795Z,1.90
2024-01-05T23:25:22.075Z,1.40
2024-01-05T23:27:53.728Z,2.40
2024-01-05T23:30:26.276Z,1.50
2024-01-05T23:32:55.677Z,1.40
2024-01-05T23:35:25.141Z,1.70
2024-01-05T23:37:54.214Z,1.40
2024-01-05T23:40:23.322Z,1.50
2024-01-05T23:42:53.037Z,1.90
2024-01-05T23:45:22.553Z,1.20
2024-01-05T23:47:53.500Z,1.40
2024-01-05T23:50:23.822Z,1.50
2024-01-05T23:52:55.135Z,1.20
2024-01-05T23:55:24.590Z,1.00
2024-01-05T23:57:54.188Z,1.50
